Time;durP1;ratioP1;P1;durP2;ratioP2;P2;SDS_P1;SDS_P2;PMS_P1;PMS_P2;Temp;Humidity;BMP_temperature;BMP_pressure;BME280_temperature;BME280_humidity;BME280_pressure;Samples;Min_cycle;Max_cycle;Signal;HPM_P1;HPM_P2
2023/09/21 00:01:06;;;;;;;10.07;2.00;;;12.10;99.90;;;;;;5032896;28;20178;-77
2023/09/21 00:03:36;;;;;;;11.73;2.50;;;11.90;99.90;;;;;;5033062;28;20186;-76
2023/09/21 00:06:03;;;;;;;9.70;1.83;;;12.00;99.90;;;;;;5016413;28;20203;-78
2023/09/21 00:08:30;;;;;;;14.13;2.40;;;12.00;99.90;;;;;;5032415;28;20177;-76
2023/09/21 00:10:58;;;;;;;11.03;1.90;;;12.00;99.90;;;;;;5033121;28;20170;-76
2023/09/21 00:13:28;;;;;;;9.43;2.23;;;12.00;99.90;;;;;;5032883;28;20264;-77
2023/09/21 00:15:55;;;;;;;7.73;2.13;;;12.00;99.90;;;;;;5033044;28;20205;-77
2023/09/21 00:18:24;;;;;;;12.33;1.63;;;;;;;;;;5032872;28;20209;-78
2023/09/21 00:20:56;;;;;;;12.63;2.10;;;12.00;99.90;;;;;;5032811;28;20165;-78
2023/09/21 00:23:25;;;;;;;14.03;2.40;;;12.00;99.90;;;;;;5032894;28;20174;-78
2023/09/21 00:26:00;;;;;;;11.43;1.67;;;12.10;99.90;;;;;;5032028;28;20177;-77
2023/09/21 00:28:27;;;;;;;8.97;2.00;;;;;;;;;;5032120;28;20567;-77
2023/09/21 00:30:54;;;;;;;12.83;1.70;;;;;;;;;;5032676;28;20178;-77
2023/09/21 00:33:20;;;;;;;17.07;1.90;;;;;;;;;;5032380;28;20217;-76
2023/09/21 00:35:46;;;;;;;12.43;2.40;;;11.90;99.90;;;;;;5032616;28;20162;-77
2023/09/21 00:38:15;;;;;;;8.87;1.70;;;11.80;99.90;;;;;;5014613;28;20220;-76
2023/09/21 00:40:44;;;;;;;11.87;2.20;;;11.80;99.90;;;;;;5032459;28;20166;-78
2023/09/21 00:43:21;;;;;;;8.87;1.23;;;11.90;99.90;;;;;;5032304;28;20173;-76
2023/09/21 00:45:51;;;;;;;10.23;1.93;;;11.70;99.90;;;;;;5032474;28;20172;-77
2023/09/21 00:48:22;;;;;;;11.43;1.40;;;11.80;99.90;;;;;;5014930;28;20181;-77
2023/09/21 00:50:48;;;;;;;13.77;1.60;;;;;;;;;;5032391;28;20182;-79
2023/09/21 00:53:15;;;;;;;11.17;1.53;;;11.70;99.90;;;;;;5032067;28;20181;-79
2023/09/21 00:55:45;;;;;;;12.77;1.87;;;11.90;99.90;;;;;;5032164;28;20239;-79
2023/09/21 00:58:11;;;;;;;20.60;2.00;;;11.80;99.90;;;;;;5031809;28;20213;-79
2023/09/21 01:00:38;;;;;;;9.30;2.00;;;11.70;99.90;;;;;;5014231;28;20236;-78
2023/09/21 01:03:12;;;;;;;13.17;1.90;;;11.80;99.90;;;;;;5032292;28;20201;-80
2023/09/21 01:05:39;;;;;;;6.77;1.50;;;11.80;99.90;;;;;;5031989;28;20659;-80
2023/09/21 01:08:10;;;;;;;12.80;1.47;;;11.70;99.90;;;;;;5032176;28;20170;-80
2023/09/21 01:10:41;;;;;;;8.40;1.70;;;11.70;99.90;;;;;;5031898;28;20208;-77
2023/09/21 01:13:07;;;;;;;7.43;1.67;;;11.80;99.90;;;;;;5031918;28;20190;-77
2023/09/21 01:15:34;;;;;;;13.47;1.47;;;11.60;99.90;;;;;;5031791;28;20177;-77
2023/09/21 01:18:00;;;;;;;8.10;1.57;;;;;;;;;;5031799;28;20206;-77
2023/09/21 01:20:32;;;;;;;9.43;1.87;;;11.60;99.90;;;;;;5031915;28;20166;-76
2023/09/21 01:23:42;;;;;;;7.87;1.30;;;11.70;99.90;;;;;;5031657;28;20640;-77
2023/09/21 01:26:08;;;;;;;9.13;1.80;;;;;;;;;;5025046;28;20621;-76
2023/09/21 01:28:36;;;;;;;10.93;1.80;;;;;;;;;;5031583;28;20180;-78
2023/09/21 01:31:03;;;;;;;10.37;1.60;;;;;;;;;;5031635;28;20170;-77
2023/09/21 01:33:28;;;;;;;11.40;1.70;;;11.90;99.90;;;;;;5031706;28;20170;-78
2023/09/21 01:35:54;;;;;;;10.07;1.77;;;12.40;99.90;;;;;;5031515;28;20162;-77
2023/09/21 01:38:25;;;;;;;6.10;1.43;;;;;;;;;;5031331;28;20703;-77
2023/09/21 01:40:51;;;;;;;10.90;1.70;;;;;;;;;;5031830;28;20272;-79
2023/09/21 01:43:17;;;;;;;10.23;1.40;;;;;;;;;;5031401;28;20213;-76
2023/09/21 01:45:49;;;;;;;10.33;1.37;;;11.40;99.90;;;;;;5031346;28;20178;-78
2023/09/21 01:48:20;;;;;;;11.80;1.90;;;11.40;99.90;;;;;;5031391;28;20178;-75
2023/09/21 01:50:47;;;;;;;8.07;1.33;;;11.60;99.90;;;;;;5031186;28;20189;-76
2023/09/21 01:53:14;;;;;;;11.57;1.20;;;11.30;99.90;;;;;;5031220;28;20170;-77
2023/09/21 01:55:40;;;;;;;17.80;1.57;;;11.30;99.90;;;;;;5031298;28;20170;-77
2023/09/21 01:58:08;;;;;;;7.17;1.40;;;11.30;99.90;;;;;;5031093;28;20209;-77
2023/09/21 02:00:39;;;;;;;7.83;1.13;;;11.50;99.90;;;;;;5031201;28;20186;-78
2023/09/21 02:03:09;;;;;;;6.30;1.30;;;11.20;99.90;;;;;;5013406;28;20192;-78
2023/09/21 02:05:36;;;;;;;16.47;1.77;;;11.60;99.90;;;;;;5013414;28;20218;-78
2023/09/21 02:08:04;;;;;;;12.30;1.17;;;11.30;99.90;;;;;;5031069;28;20257;-78
2023/09/21 02:10:34;;;;;;;15.43;1.50;;;11.30;99.90;;;;;;5031128;28;20166;-80
2023/09/21 02:13:05;;;;;;;9.77;1.17;;;11.40;99.90;;;;;;5031124;28;20178;-81
2023/09/21 02:15:32;;;;;;;6.00;1.63;;;11.00;99.90;;;;;;5031043;28;20202;-78
2023/09/21 02:17:57;;;;;;;5.77;1.30;;;11.50;99.90;;;;;;5030829;28;20723;-78
2023/09/21 02:20:23;;;;;;;10.17;1.30;;;11.00;99.90;;;;;;5031109;28;20308;-77
2023/09/21 02:22:52;;;;;;;6.03;0.97;;;11.20;99.90;;;;;;5013517;28;20220;-77
2023/09/21 02:25:19;;;;;;;12.43;1.30;;;11.10;99.90;;;;;;5030926;28;20197;-77
2023/09/21 02:27:46;;;;;;;10.97;1.30;;;11.00;99.90;;;;;;5030628;28;20364;-81
2023/09/21 02:30:16;;;;;;;4.80;0.97;;;11.40;99.90;;;;;;5030598;28;20271;-80
2023/09/21 02:32:43;;;;;;;10.37;1.40;;;11.60;99.90;;;;;;5030948;28;20178;-80
2023/09/21 02:35:13;;;;;;;11.53;1.20;;;11.40;99.90;;;;;;5030909;28;20236;-79
2023/09/21 02:37:41;;;;;;;9.60;1.33;;;11.20;99.90;;;;;;5030753;28;20642;-78
2023/09/21 02:40:08;;;;;;;4.37;1.20;;;11.40;99.90;;;;;;5030713;28;20200;-78
2023/09/21 02:42:34;;;;;;;6.63;1.00;;;11.50;99.90;;;;;;5030719;28;20257;-79
2023/09/21 02:44:59;;;;;;;7.53;0.90;;;11.20;99.90;;;;;;5030659;28;20208;-79
2023/09/21 02:47:29;;;;;;;7.23;1.27;;;;;;;;;;5012893;28;20177;-80
2023/09/21 02:49:55;;;;;;;8.67;1.20;;;11.10;99.90;;;;;;5031854;28;20205;-77
2023/09/21 02:52:21;;;;;;;7.23;0.77;;;11.00;99.90;;;;;;5034668;28;20610;-77
2023/09/21 02:54:47;;;;;;;8.13;1.20;;;;;;;;;;5034501;28;20178;-77
2023/09/21 02:57:12;;;;;;;6.93;1.00;;;11.00;99.90;;;;;;5032909;28;20217;-77
2023/09/21 02:59:38;;;;;;;6.93;0.80;;;11.30;99.90;;;;;;5033301;28;20663;-76
2023/09/21 03:02:04;;;;;;;7.10;1.00;;;11.20;99.90;;;;;;5034302;28;20178;-77
2023/09/21 03:04:31;;;;;;;8.23;1.43;;;11.20;99.90;;;;;;5034191;28;20543;-79
2023/09/21 03:06:59;;;;;;;9.43;1.23;;;;;;;;;;5034073;28;20695;-79
2023/09/21 03:09:25;;;;;;;6.77;1.23;;;11.50;99.90;;;;;;5034245;28;20649;-80
2023/09/21 03:11:50;;;;;;;8.27;1.50;;;11.30;99.90;;;;;;5034116;28;20178;-79
2023/09/21 03:14:16;;;;;;;10.20;1.10;;;11.20;99.90;;;;;;5033669;28;20166;-77
2023/09/21 03:16:43;;;;;;;7.77;1.30;;;11.30;99.90;;;;;;5033782;28;20186;-76
2023/09/21 03:19:11;;;;;;;7.27;1.30;;;11.00;99.90;;;;;;5033714;28;20170;-76
2023/09/21 03:21:37;;;;;;;9.63;0.90;;;11.20;99.90;;;;;;5033686;28;20185;-76
2023/09/21 03:24:03;;;;;;;10.27;1.30;;;11.00;99.90;;;;;;5033627;28;20184;-78
2023/09/21 03:26:29;;;;;;;8.73;1.30;;;11.20;99.90;;;;;;5033156;28;20213;-76
2023/09/21 03:28:54;;;;;;;12.43;2.33;;;11.50;99.90;;;;;;5050932;28;20177;-77
2023/09/21 03:31:21;;;;;;;7.30;1.00;;;;;;;;;;5042725;28;20212;-76
2023/09/21 03:33:47;;;;;;;8.30;1.30;;;11.10;99.90;;;;;;5015447;28;20185;-77
2023/09/21 03:36:13;;;;;;;6.50;1.10;;;10.90;99.90;;;;;;5033402;28;20205;-78
2023/09/21 03:38:40;;;;;;;12.50;1.20;;;11.10;99.90;;;;;;5033578;28;20568;-81
2023/09/21 03:41:05;;;;;;;11.27;1.30;;;11.10;99.90;;;;;;5015725;28;20181;-80
2023/09/21 03:43:31;;;;;;;8.70;1.37;;;10.90;99.90;;;;;;5033650;28;20189;-81
2023/09/21 03:45:57;;;;;;;7.63;1.23;;;;;;;;;;5033671;28;20178;-78
2023/09/21 03:48:23;;;;;;;6.53;1.10;;;11.00;99.90;;;;;;5033239;28;20177;-78
2023/09/21 03:50:51;;;;;;;9.37;1.27;;;;;;;;;;5033678;28;20184;-77
2023/09/21 03:53:17;;;;;;;8.07;1.20;;;11.30;99.90;;;;;;5033299;28;20174;-77
2023/09/21 03:55:43;;;;;;;11.03;1.30;;;11.00;99.90;;;;;;5032761;28;20694;-78
2023/09/21 03:58:09;;;;;;;12.90;1.70;;;11.00;99.90;;;;;;5032806;28;20786;-78
2023/09/21 04:03:09;;;;;;;7.37;1.17;;;11.00;99.90;;;;;;5032373;28;20264;-78
2023/09/21 04:05:35;;;;;;;5.17;1.00;;;11.00;99.90;;;;;;5033130;28;20209;-78
2023/09/21 04:08:05;;;;;;;5.37;0.93;;;10.80;99.90;;;;;;5032824;28;20182;-79
2023/09/21 04:10:31;;;;;;;6.97;1.23;;;;;;;;;;5032877;28;20170;-76
2023/09/21 04:12:57;;;;;;;10.40;1.23;;;10.80;99.90;;;;;;5032932;28;20182;-78
2023/09/21 04:15:24;;;;;;;6.43;1.50;;;10.80;99.90;;;;;;5032690;28;20272;-78
2023/09/21 04:17:50;;;;;;;5.30;1.13;;;10.70;99.90;;;;;;5032811;28;20209;-78
2023/09/21 04:20:18;;;;;;;7.33;1.07;;;10.30;99.90;;;;;;5052710;28;20713;-80
2023/09/21 04:22:45;;;;;;;6.10;1.10;;;11.20;99.90;;;;;;5045616;28;20507;-78
2023/09/21 04:25:14;;;;;;;11.37;1.47;;;10.60;99.90;;;;;;5033150;28;20169;-78
2023/09/21 04:27:41;;;;;;;6.97;1.03;;;10.50;99.90;;;;;;5032787;28;20233;-78
2023/09/21 04:30:09;;;;;;;8.27;1.53;;;10.50;99.90;;;;;;5032702;28;20181;-79
2023/09/21 04:32:38;;;;;;;8.27;0.93;;;10.60;99.90;;;;;;5032570;28;20185;-78
2023/09/21 04:35:05;;;;;;;9.90;1.70;;;10.60;99.90;;;;;;5040926;28;20173;-78
2023/09/21 04:37:35;;;;;;;7.83;1.80;;;10.70;99.90;;;;;;5052476;28;20205;-78
2023/09/21 04:40:10;;;;;;;4.77;1.10;;;10.60;99.90;;;;;;5052591;28;20193;-78
2023/09/21 04:42:46;;;;;;;7.63;1.47;;;10.30;99.90;;;;;;5052394;28;20198;-77
2023/09/21 04:45:14;;;;;;;9.07;1.50;;;10.50;99.90;;;;;;5052245;28;20180;-76
2023/09/21 04:47:41;;;;;;;6.17;0.97;;;10.50;99.90;;;;;;5052269;28;20251;-77
2023/09/21 04:50:10;;;;;;;10.23;1.23;;;10.50;99.90;;;;;;5052407;28;20169;-76
2023/09/21 04:52:35;;;;;;;6.07;1.60;;;10.10;99.90;;;;;;5021247;28;20174;-77
2023/09/21 04:55:05;;;;;;;13.70;1.47;;;10.30;99.90;;;;;;5014313;28;20730;-78
2023/09/21 04:57:31;;;;;;;4.70;0.90;;;10.30;99.90;;;;;;5035151;28;20205;-77
2023/09/21 04:59:58;;;;;;;7.60;1.57;;;10.20;99.90;;;;;;5046736;28;20698;-77
2023/09/21 05:02:24;;;;;;;8.67;1.43;;;9.90;99.90;;;;;;5013888;28;20178;-78
2023/09/21 05:04:50;;;;;;;4.97;1.10;;;10.20;99.90;;;;;;5031777;28;20185;-77
2023/09/21 05:07:17;;;;;;;11.50;1.50;;;10.50;99.90;;;;;;5050109;28;20559;-76
2023/09/21 05:09:44;;;;;;;7.57;1.40;;;10.70;99.90;;;;;;5047316;28;20264;-77
2023/09/21 05:12:09;;;;;;;9.87;1.40;;;10.40;99.90;;;;;;5031795;28;20162;-77
2023/09/21 05:14:35;;;;;;;7.23;1.50;;;10.30;99.90;;;;;;5014031;28;20196;-77
2023/09/21 05:17:01;;;;;;;8.63;1.20;;;10.50;99.90;;;;;;5031770;28;20677;-77
2023/09/21 05:19:27;;;;;;;13.33;1.10;;;10.40;99.90;;;;;;5031994;28;20181;-77
2023/09/21 05:21:56;;;;;;;7.50;1.23;;;;;;;;;;5031749;28;20174;-78
2023/09/21 05:24:24;;;;;;;7.43;1.60;;;10.50;99.90;;;;;;5031803;28;20173;-76
2023/09/21 05:26:49;;;;;;;6.43;1.40;;;10.50;99.90;;;;;;5031396;28;20696;-77
2023/09/21 05:29:16;;;;;;;9.97;1.03;;;10.30;99.90;;;;;;5031590;28;20181;-76
2023/09/21 05:31:41;;;;;;;5.00;1.07;;;10.30;99.90;;;;;;5032019;28;20192;-79
2023/09/21 05:34:07;;;;;;;4.20;1.17;;;10.30;99.90;;;;;;4997511;28;20544;-79
2023/09/21 05:36:33;;;;;;;7.50;1.20;;;10.20;99.90;;;;;;5030266;28;20182;-79
2023/09/21 05:39:01;;;;;;;10.33;1.43;;;10.10;99.90;;;;;;5031146;28;20755;-77
2023/09/21 05:41:27;;;;;;;9.80;1.53;;;10.30;99.90;;;;;;5031420;28;20173;-77
2023/09/21 05:43:53;;;;;;;6.87;1.03;;;;;;;;;;5031201;28;20181;-76
2023/09/21 05:46:20;;;;;;;10.97;1.37;;;10.20;99.90;;;;;;5031378;28;20178;-76
2023/09/21 05:48:45;;;;;;;5.43;1.53;;;10.40;99.90;;;;;;5031317;28;20236;-76
2023/09/21 05:51:12;;;;;;;5.57;0.90;;;;;;;;;;5030917;28;20489;-76
2023/09/21 05:53:37;;;;;;;7.37;1.10;;;10.30;99.90;;;;;;5031083;28;20707;-76
2023/09/21 05:56:04;;;;;;;8.47;1.20;;;10.30;99.90;;;;;;5031000;28;20177;-77
2023/09/21 05:58:32;;;;;;;7.13;1.00;;;10.30;99.90;;;;;;5030769;28;20229;-79
2023/09/21 06:01:02;;;;;;;8.33;1.10;;;;;;;;;;5030978;28;20165;-77
2023/09/21 06:03:28;;;;;;;7.47;1.60;;;10.70;99.90;;;;;;5031142;28;20177;-76
2023/09/21 06:05:54;;;;;;;5.83;1.23;;;10.60;99.90;;;;;;5030399;28;20545;-78
2023/09/21 06:08:20;;;;;;;5.97;1.50;;;;;;;;;;5031211;28;20182;-77
2023/09/21 06:10:46;;;;;;;5.40;1.00;;;10.30;99.90;;;;;;5030614;28;20182;-77
2023/09/21 06:13:12;;;;;;;4.23;0.90;;;10.40;99.90;;;;;;5041701;28;20199;-79
2023/09/21 06:15:46;;;;;;;8.90;1.30;;;10.10;99.90;;;;;;5050919;28;20169;-79
2023/09/21 06:18:11;;;;;;;8.37;1.07;;;10.60;99.90;;;;;;5032023;28;20213;-80
2023/09/21 06:20:37;;;;;;;4.77;1.43;;;10.50;99.90;;;;;;5030726;28;20517;-78
2023/09/21 06:23:04;;;;;;;8.40;1.50;;;10.70;99.90;;;;;;5030870;28;20602;-77
2023/09/21 06:25:30;;;;;;;4.97;1.37;;;10.50;99.90;;;;;;5030037;28;20178;-77
2023/09/21 06:27:56;;;;;;;7.17;1.07;;;10.60;99.90;;;;;;5030487;28;20308;-78
2023/09/21 06:30:23;;;;;;;9.17;1.23;;;10.60;99.90;;;;;;5049249;28;20579;-79
2023/09/21 06:32:49;;;;;;;5.67;1.27;;;10.60;99.90;;;;;;5018569;28;20185;-77
2023/09/21 06:35:14;;;;;;;9.77;1.87;;;10.50;99.90;;;;;;5036693;28;20177;-76
2023/09/21 06:37:40;;;;;;;11.63;1.90;;;10.60;99.90;;;;;;5050618;28;20604;-76
2023/09/21 06:40:06;;;;;;;11.60;2.07;;;10.60;99.90;;;;;;5037361;28;20178;-79
2023/09/21 06:42:33;;;;;;;8.57;1.73;;;10.70;99.90;;;;;;5030497;28;20180;-78
2023/09/21 06:44:58;;;;;;;7.83;1.50;;;10.50;99.90;;;;;;5030920;28;20190;-78
2023/09/21 06:47:28;;;;;;;8.40;1.40;;;10.60;99.90;;;;;;5026190;28;20170;-79
2023/09/21 06:49:54;;;;;;;5.43;1.10;;;10.60;99.90;;;;;;5012467;28;20182;-82
2023/09/21 06:52:23;;;;;;;7.17;1.50;;;10.60;99.90;;;;;;5029866;28;20228;-80
2023/09/21 06:54:49;;;;;;;3.00;1.10;;;10.30;99.90;;;;;;5038468;28;20652;-87
2023/09/21 06:57:16;;;;;;;4.10;1.50;;;10.50;99.90;;;;;;5038931;28;20709;-77
2023/09/21 06:59:42;;;;;;;7.47;1.77;;;10.50;99.90;;;;;;5037755;28;20178;-77
2023/09/21 07:02:08;;;;;;;7.63;1.20;;;10.50;99.90;;;;;;5011716;28;20180;-77
2023/09/21 07:04:34;;;;;;;5.30;1.30;;;10.60;99.90;;;;;;5040745;28;20173;-76
2023/09/21 07:07:05;;;;;;;7.57;1.33;;;10.60;99.90;;;;;;5050336;28;20657;-76
2023/09/21 07:09:31;;;;;;;9.17;1.83;;;10.80;99.90;;;;;;5032532;28;20174;-75
2023/09/21 07:11:57;;;;;;;7.87;1.50;;;10.70;99.90;;;;;;5030518;28;20169;-76
2023/09/21 07:14:23;;;;;;;7.37;1.83;;;10.60;99.90;;;;;;5030662;28;20170;-80
2023/09/21 07:16:48;;;;;;;8.70;1.63;;;10.80;99.90;;;;;;5030394;28;20576;-78
2023/09/21 07:19:14;;;;;;;6.63;1.23;;;10.80;99.90;;;;;;5012560;28;20641;-78
2023/09/21 07:21:40;;;;;;;13.60;1.60;;;10.80;99.90;;;;;;5047785;28;20181;-78
2023/09/21 07:24:07;;;;;;;22.23;6.40;;;11.00;99.90;;;;;;5050384;28;20239;-78
2023/09/21 07:26:34;;;;;;;8.83;2.90;;;11.20;99.90;;;;;;5025914;28;20220;-77
2023/09/21 07:29:07;;;;;;;17.97;4.07;;;11.20;99.90;;;;;;5032305;28;20174;-78
2023/09/21 07:31:33;;;;;;;8.57;2.33;;;11.30;99.90;;;;;;5029648;28;20638;-77
2023/09/21 07:34:01;;;;;;;10.80;2.17;;;11.60;99.90;;;;;;5029573;28;20178;-77
2023/09/21 07:36:27;;;;;;;6.40;1.57;;;11.50;99.90;;;;;;5031433;28;20224;-79
2023/09/21 07:38:55;;;;;;;9.50;2.10;;;11.80;99.90;;;;;;5033799;28;20210;-78
2023/09/21 07:41:21;;;;;;;10.63;1.70;;;11.70;99.90;;;;;;5033245;28;20220;-78
2023/09/21 07:43:48;;;;;;;7.63;1.60;;;11.80;99.90;;;;;;5033336;28;20174;-78
2023/09/21 07:46:14;;;;;;;11.67;2.10;;;11.90;99.90;;;;;;5032616;28;20181;-74
2023/09/21 07:48:41;;;;;;;7.47;1.53;;;11.90;99.90;;;;;;5015402;28;20178;-76
2023/09/21 07:51:07;;;;;;;9.33;1.13;;;12.20;99.90;;;;;;5032759;28;20252;-76
2023/09/21 07:53:35;;;;;;;10.40;1.50;;;12.40;99.90;;;;;;5041024;28;20205;-76
2023/09/21 07:56:08;;;;;;;7.60;1.37;;;12.20;99.90;;;;;;5017527;28;20174;-76
2023/09/21 07:58:34;;;;;;;9.43;1.60;;;12.40;99.90;;;;;;5033448;28;20308;-77
2023/09/21 08:01:00;;;;;;;9.40;1.33;;;12.50;99.90;;;;;;5015650;28;20262;-77
2023/09/21 08:03:26;;;;;;;3.87;1.00;;;12.60;99.90;;;;;;5033107;28;20628;-78
2023/09/21 08:05:55;;;;;;;10.57;1.47;;;12.90;99.90;;;;;;5032756;28;20257;-76
2023/09/21 08:08:21;;;;;;;7.30;1.20;;;12.90;99.90;;;;;;5033344;28;20206;-75
2023/09/21 08:10:50;;;;;;;9.60;1.93;;;12.90;99.90;;;;;;5033059;28;20174;-74
2023/09/21 08:13:16;;;;;;;7.20;1.37;;;13.00;99.90;;;;;;5033112;28;20699;-74
2023/09/21 08:15:42;;;;;;;8.13;1.30;;;13.20;99.90;;;;;;5032963;28;20174;-75
2023/09/21 08:18:10;;;;;;;10.10;1.40;;;13.30;99.90;;;;;;5032415;28;20214;-75
2023/09/21 08:20:39;;;;;;;8.23;1.53;;;13.50;99.90;;;;;;5032481;28;20186;-76
2023/09/21 08:23:06;;;;;;;11.63;1.20;;;13.60;99.90;;;;;;5032479;28;20268;-77
2023/09/21 08:25:35;;;;;;;6.47;1.40;;;15.00;99.90;;;;;;5032181;28;20178;-74
2023/09/21 08:28:05;;;;;;;10.48;1.52;;;13.90;99.90;;;;;;4993149;28;20657;-74
2023/09/21 08:30:31;;;;;;;8.60;1.67;;;14.10;99.90;;;;;;4993430;28;20179;-74
2023/09/21 08:32:57;;;;;;;5.47;1.30;;;15.10;99.90;;;;;;4992290;28;20167;-74
2023/09/21 08:35:23;;;;;;;9.88;1.33;;;15.20;99.90;;;;;;4993369;28;20171;-74
2023/09/21 08:37:50;;;;;;;7.90;1.50;;;15.30;99.90;;;;;;4992665;28;20226;-74
2023/09/21 08:40:16;;;;;;;8.88;1.55;;;16.20;99.90;;;;;;4991649;28;20179;-74
2023/09/21 08:42:44;;;;;;;7.05;1.25;;;17.70;99.90;;;;;;4993082;28;20225;-74
2023/09/21 08:45:11;;;;;;;7.47;1.45;;;17.60;99.90;;;;;;4992633;28;20222;-74
2023/09/21 08:47:40;;;;;;;10.35;1.67;;;17.30;99.90;;;;;;4992285;28;20175;-75
2023/09/21 08:50:09;;;;;;;13.68;1.63;;;17.20;99.90;;;;;;4992949;28;20178;-74
2023/09/21 08:52:36;;;;;;;7.15;1.30;;;17.30;99.90;;;;;;4991916;28;20179;-75
2023/09/21 08:55:02;;;;;;;13.90;2.20;;;16.70;99.90;;;;;;4992772;28;20168;-75
2023/09/21 08:57:28;;;;;;;8.68;1.10;;;16.40;99.90;;;;;;4992371;28;20222;-74
2023/09/21 08:59:56;;;;;;;10.07;1.20;;;16.00;99.90;;;;;;4991222;28;20175;-74
2023/09/21 09:02:23;;;;;;;11.43;1.50;;;16.00;99.90;;;;;;4992667;28;20187;-73
2023/09/21 09:04:50;;;;;;;8.90;2.00;;;15.90;99.90;;;;;;4992723;28;20175;-73
2023/09/21 09:07:18;;;;;;;28.95;2.65;;;15.90;99.90;;;;;;4992507;28;20203;-73
2023/09/21 09:09:44;;;;;;;5.60;1.33;;;15.90;99.90;;;;;;4992575;28;20175;-73
2023/09/21 09:12:23;;;;;;;10.48;1.48;;;16.00;99.90;;;;;;4992460;28;20218;-74
2023/09/21 09:14:54;;;;;;;10.70;1.33;;;16.40;99.90;;;;;;4991171;28;20183;-73
2023/09/21 09:17:20;;;;;;;5.95;1.20;;;16.10;99.90;;;;;;4992209;28;20281;-73
2023/09/21 09:19:48;;;;;;;10.90;1.88;;;16.00;99.90;;;;;;4992208;28;20646;-73
2023/09/21 09:22:18;;;;;;;10.80;1.60;;;16.00;99.90;;;;;;4990885;28;20214;-73
2023/09/21 09:24:50;;;;;;;8.82;1.15;;;16.00;99.90;;;;;;4990454;28;20250;-73
2023/09/21 09:27:16;;;;;;;10.70;1.65;;;16.20;99.90;;;;;;5017524;28;20225;-74
2023/09/21 09:29:51;;;;;;;14.52;1.83;;;16.50;99.90;;;;;;5029807;28;20182;-73
2023/09/21 09:32:22;;;;;;;6.35;1.38;;;16.50;99.90;;;;;;5030171;28;20647;-73
2023/09/21 09:34:48;;;;;;;9.20;1.23;;;16.50;99.90;;;;;;5030369;28;20256;-73
2023/09/21 09:37:16;;;;;;;10.98;1.65;;;16.80;99.90;;;;;;5030826;28;20204;-73
2023/09/21 09:39:43;;;;;;;7.20;1.45;;;16.90;99.90;;;;;;5031132;28;20227;-73
2023/09/21 09:42:11;;;;;;;10.10;1.70;;;16.90;99.90;;;;;;5030968;28;20636;-73
2023/09/21 09:44:44;;;;;;;7.72;1.02;;;17.00;99.90;;;;;;5031046;28;20207;-73
2023/09/21 09:47:13;;;;;;;4.82;1.15;;;16.90;99.90;;;;;;5031124;28;20352;-74
2023/09/21 09:49:44;;;;;;;10.43;1.70;;;17.10;99.90;;;;;;5030988;28;20173;-74
2023/09/21 09:52:13;;;;;;;9.57;1.58;;;17.20;99.90;;;;;;5030923;28;20209;-74
2023/09/21 09:54:40;;;;;;;13.55;1.40;;;17.30;99.90;;;;;;5030886;28;20671;-74
2023/09/21 09:57:11;;;;;;;8.00;1.08;;;17.60;99.90;;;;;;5030850;28;20209;-72
2023/09/21 09:59:37;;;;;;;9.88;1.35;;;17.60;99.90;;;;;;5030701;28;20248;-73
2023/09/21 10:02:07;;;;;;;14.13;1.83;;;17.90;99.90;;;;;;5029476;28;20188;-73
2023/09/21 10:04:35;;;;;;;6.18;0.88;;;18.60;99.90;;;;;;5030927;28;20205;-73
2023/09/21 10:07:03;;;;;;;5.53;1.02;;;18.80;99.90;;;;;;5030872;28;20166;-74
2023/09/21 10:09:29;;;;;;;5.88;1.23;;;18.70;99.90;;;;;;5030864;28;20644;-73
2023/09/21 10:11:57;;;;;;;9.82;1.02;;;19.50;99.90;;;;;;5030859;28;20197;-73
2023/09/21 10:14:23;;;;;;;10.40;1.10;;;20.80;99.90;;;;;;5030723;28;20170;-73
2023/09/21 10:16:56;;;;;;;7.70;1.17;;;21.40;99.90;;;;;;5030593;28;20204;-74
2023/09/21 10:19:26;;;;;;;4.45;0.95;;;21.30;99.90;;;;;;5030772;28;20169;-76
2023/09/21 10:21:59;;;;;;;3.95;0.95;;;20.90;77.50;;;;;;5013217;28;20652;-75
2023/09/21 10:24:29;;;;;;;4.65;1.00;;;20.50;1.00;;;;;;5012979;28;20177;-75
2023/09/21 10:27:01;;;;;;;6.15;1.33;;;20.20;99.90;;;;;;5030447;28;20404;-75
2023/09/21 10:29:32;;;;;;;6.18;1.33;;;20.40;1.00;;;;;;5030614;28;20215;-75
2023/09/21 10:32:04;;;;;;;7.22;1.15;;;21.20;1.00;;;;;;5030918;28;20173;-76
2023/09/21 10:34:31;;;;;;;10.45;1.23;;;;;;;;;;5030676;28;20173;-76
2023/09/21 10:37:10;;;;;;;4.25;1.13;;;20.70;99.90;;;;;;5030556;28;20185;-76
2023/09/21 10:39:42;;;;;;;5.03;1.20;;;20.80;1.00;;;;;;5012939;28;20178;-75
2023/09/21 10:42:07;;;;;;;6.88;1.25;;;20.70;1.00;;;;;;5012837;28;20173;-75
2023/09/21 10:45:03;;;;;;;4.60;1.13;;;20.50;99.90;;;;;;5030593;28;20534;-76
2023/09/21 10:47:32;;;;;;;5.72;1.50;;;21.00;99.90;;;;;;5030686;28;20197;-75
2023/09/21 10:50:00;;;;;;;8.43;1.30;;;21.40;99.90;;;;;;5030590;28;20197;-75
2023/09/21 10:52:30;;;;;;;5.15;1.08;;;21.00;1.00;;;;;;5030472;28;20162;-76
2023/09/21 10:54:57;;;;;;;6.00;1.33;;;21.20;1.00;;;;;;5012654;28;20178;-75
2023/09/21 10:57:27;;;;;;;4.07;1.10;;;21.30;1.00;;;;;;5030518;28;20244;-75
2023/09/21 10:59:55;;;;;;;5.72;1.48;;;21.90;1.00;;;;;;5030461;28;20181;-75
2023/09/21 11:02:22;;;;;;;4.05;0.90;;;22.10;1.00;;;;;;5030481;28;20240;-75
2023/09/21 11:04:49;;;;;;;6.88;1.23;;;23.20;99.90;;;;;;5030372;28;20265;-76
2023/09/21 11:07:17;;;;;;;11.25;1.75;;;19.50;1.00;;;;;;5030083;28;20185;-73
2023/09/21 11:09:44;;;;;;;8.05;0.88;;;18.70;1.00;;;;;;5030172;28;20202;-73
2023/09/21 11:12:14;;;;;;;6.30;1.00;;;18.80;99.90;;;;;;5033290;28;20188;-73
2023/09/21 11:14:42;;;;;;;3.33;0.70;;;18.70;1.00;;;;;;5034288;28;20174;-73
2023/09/21 11:17:11;;;;;;;4.80;0.88;;;18.60;1.00;;;;;;5033988;28;20226;-73
2023/09/21 11:19:41;;;;;;;5.32;0.80;;;18.10;1.00;;;;;;5033920;28;20917;-74
2023/09/21 11:22:07;;;;;;;6.53;0.88;;;18.70;99.90;;;;;;5033714;28;20170;-73
2023/09/21 11:24:36;;;;;;;4.60;0.95;;;20.00;1.00;;;;;;5033821;28;20193;-74
2023/09/21 11:27:10;;;;;;;5.88;1.13;;;20.50;1.00;;;;;;5033169;28;20759;-75
2023/09/21 11:29:40;;;;;;;7.28;0.88;;;23.00;99.90;;;;;;5033693;28;20177;-76
2023/09/21 11:32:19;;;;;;;4.53;0.90;;;24.10;1.00;;;;;;5034091;28;20223;-76
2023/09/21 11:34:45;;;;;;;3.53;0.95;;;24.10;17.30;;;;;;5033904;28;20182;-76
2023/09/21 11:37:12;;;;;;;2.88;1.00;;;24.10;1.00;;;;;;5033438;28;20259;-76
2023/09/21 11:39:46;;;;;;;6.60;1.20;;;22.80;97.10;;;;;;5031658;28;20204;-76
2023/09/21 11:42:12;;;;;;;1.15;0.70;;;22.80;99.90;;;;;;5031789;28;20174;-76
2023/09/21 11:44:38;;;;;;;3.40;0.80;;;22.20;1.00;;;;;;5032927;28;20181;-76
2023/09/21 11:47:11;;;;;;;3.58;0.80;;;22.20;1.00;;;;;;5032914;28;20166;-76
2023/09/21 11:49:38;;;;;;;4.45;0.98;;;20.50;99.90;;;;;;5032900;28;20182;-76
2023/09/21 11:52:04;;;;;;;3.70;0.93;;;;;;;;;;5032765;28;20204;-74
2023/09/21 11:54:38;;;;;;;5.35;0.90;;;20.40;1.00;;;;;;5033335;28;20202;-74
2023/09/21 11:57:05;;;;;;;6.57;0.98;;;22.30;1.00;;;;;;5033298;28;20161;-77
2023/09/21 11:59:34;;;;;;;6.45;1.10;;;22.50;1.00;;;;;;5033262;28;20192;-77
2023/09/21 12:02:00;;;;;;;4.00;1.15;;;22.10;1.00;;;;;;5015601;28;20178;-77
2023/09/21 12:04:31;;;;;;;5.53;1.02;;;21.30;50.70;;;;;;5033451;28;20287;-75
2023/09/21 12:06:57;;;;;;;2.92;0.77;;;19.80;1.00;;;;;;5033317;28;20224;-74
2023/09/21 12:09:22;;;;;;;6.13;1.17;;;19.50;1.00;;;;;;5032801;28;20174;-74
2023/09/21 12:11:53;;;;;;;3.05;0.77;;;19.60;1.00;;;;;;5033403;28;20181;-74
2023/09/21 12:14:19;;;;;;;3.55;0.93;;;19.30;29.70;;;;;;5033086;28;20166;-75
2023/09/21 12:16:45;;;;;;;4.07;0.98;;;19.40;1.00;;;;;;5032972;28;20185;-75
2023/09/21 12:19:10;;;;;;;3.80;0.80;;;22.90;99.90;;;;;;5031433;28;20206;-77
2023/09/21 12:21:36;;;;;;;6.57;0.90;;;23.00;1.00;;;;;;5032270;28;20176;-76
2023/09/21 12:24:02;;;;;;;2.08;0.80;;;24.40;1.00;;;;;;5031956;28;20590;-77
2023/09/21 12:26:29;;;;;;;5.95;0.93;;;24.50;99.90;;;;;;5032854;28;20222;-76
2023/09/21 12:28:54;;;;;;;3.53;1.08;;;24.60;99.90;;;;;;5030913;28;20266;-77
2023/09/21 12:31:22;;;;;;;2.97;0.90;;;24.30;99.90;;;;;;5032311;28;20188;-77
2023/09/21 12:33:50;;;;;;;3.70;0.73;;;;;;;;;;5052421;28;20165;-76
2023/09/21 12:36:16;;;;;;;3.13;0.70;;;22.40;99.90;;;;;;5032313;28;20181;-76
2023/09/21 12:38:43;;;;;;;2.75;0.90;;;21.70;99.90;;;;;;5032290;28;20210;-76
2023/09/21 12:41:10;;;;;;;2.20;0.50;;;21.80;99.90;;;;;;5032570;28;20162;-77
2023/09/21 12:43:38;;;;;;;1.30;0.45;;;21.70;1.00;;;;;;5014629;28;20178;-77
2023/09/21 12:46:08;;;;;;;2.20;0.60;;;20.60;99.90;;;;;;5031868;28;20169;-77
2023/09/21 12:48:36;;;;;;;2.95;0.80;;;19.90;1.00;;;;;;5032364;28;20208;-77
2023/09/21 12:51:03;;;;;;;2.95;0.68;;;19.60;1.00;;;;;;5032272;28;20690;-76
2023/09/21 12:53:29;;;;;;;4.78;0.77;;;19.60;1.00;;;;;;5032199;28;20308;-76
2023/09/21 12:55:55;;;;;;;1.95;0.70;;;;;;;;;;5032012;28;20203;-76
2023/09/21 12:58:21;;;;;;;1.17;0.50;;;19.00;99.90;;;;;;5031622;28;20245;-76
2023/09/21 13:00:49;;;;;;;1.70;0.45;;;18.80;1.00;;;;;;5031613;28;20726;-75